Wilson Clyde — 8PRV — position and weather

sailwx.info

Track history (hours):
 
Tides and Currents Weather Stations Pressure Air Temp Water Temp Dewpoint Dewpoint Depression Visibility Wind Speed Wind Dir Waves Ship Positions

Wilson Clyde

Last reported at 2014-Oct-20 17:16 UTC. Time now 2014-Oct-23 06:07 UTC.
Position N 57°33' E 010°44'.

Length 100 m; draft 5.1 m.

Type: Ship. MMSI: 314187000.

Date/timePositionNaut miles runAvg speedWind from/ knotsBaromVisibWave heightAir tempDewpointWater temp
2014-Oct-20 17:16N 57°33' E 010°44'810.7
2014-Oct-20 16:33N 57°41' E 010°45'9 9.3
2014-Oct-20 15:33N 57°47' E 010°33'13611.3
2014-Oct-20 03:31N 58°06' E 006°19'8 8.7
2014-Oct-20 02:34N 58°12' E 006°08'9 8.7
2014-Oct-20 01:33N 58°18' E 005°57'10 9.7
2014-Oct-20 00:33N 58°25' E 005°43'9 8.7
2014-Oct-19 23:33N 58°31' E 005°32'13 8.9
2014-Oct-19 22:06N 58°42' E 005°19'5 8.4
2014-Oct-19 21:34N 58°46' E 005°14'8 8.1
2014-Oct-19 20:33N 58°53' E 005°06'8 7.6
2014-Oct-19 19:29N 58°60' E 004°58'7 7.3
2014-Oct-19 18:33N 59°06' E 004°51'  
2014-Oct-17 12:17N 66°17' E 012°13'911.9
2014-Oct-17 11:33N 66°15' E 012°35'1111.0
2014-Oct-17 10:32N 66°22' E 012°57'  
2014-Oct-14 22:33N 67°12' E 014°05'1312.9
2014-Oct-14 21:33N 67°22' E 014°25'2410.4
2014-Oct-14 19:12N 67°31' E 015°24'812.3
2014-Oct-14 18:33N 67°24' E 015°34'2 1.4
2014-Oct-14 17:25N 67°22' E 015°35'0 0.0
2014-Oct-14 16:25N 67°22' E 015°35'0 0.0
2014-Oct-14 15:28N 67°22' E 015°35'0 0.0
2014-Oct-14 14:28N 67°22' E 015°35'0 0.0
2014-Oct-14 13:28N 67°22' E 015°35'0 0.0
2014-Oct-14 12:31N 67°22' E 015°35'0 0.0
2014-Oct-14 11:31N 67°22' E 015°35'0 0.0
2014-Oct-14 10:31N 67°22' E 015°35'0 0.0
2014-Oct-14 09:31N 67°22' E 015°35'0 0.0
2014-Oct-14 08:31N 67°22' E 015°35'0 0.0
2014-Oct-14 07:31N 67°22' E 015°35'0 0.0
2014-Oct-14 06:31N 67°22' E 015°35'0 0.0
2014-Oct-14 05:22N 67°22' E 015°35'0 0.0
2014-Oct-14 04:25N 67°22' E 015°35'0 0.0
2014-Oct-14 03:25N 67°22' E 015°35'0 0.0
2014-Oct-14 02:22N 67°22' E 015°35'0 0.0
2014-Oct-14 01:33N 67°22' E 015°35'7 6.9
2014-Oct-14 00:33N 67°28' E 015°30'20 9.8
2014-Oct-13 22:33N 67°31' E 014°39'1110.7
2014-Oct-13 21:31N 67°30' E 014°10'7710.4
2014-Oct-13 14:08N 66°42' E 011°36'49410.8
2014-Oct-11 16:18N 59°04' E 004°51'912.3
2014-Oct-11 15:33N 58°56' E 004°59'1211.7
2014-Oct-11 14:33N 58°46' E 005°11'2511.8
2014-Oct-11 12:27N 58°25' E 005°36'1111.8
2014-Oct-11 11:33N 58°18' E 005°51'1212.0
2014-Oct-11 10:34N 58°09' E 006°07'1211.9
2014-Oct-11 09:31N 58°01' E 006°24'10111.0
2014-Oct-11 00:24N 57°51' E 009°33'8 9.6
2014-Oct-10 23:33N 57°50' E 009°48'20 9.9
2014-Oct-10 21:33N 57°49' E 010°25'9 9.4
2014-Oct-10 20:33N 57°48' E 010°42'1010.2
2014-Oct-10 19:33N 57°43' E 010°58'1211.8
2014-Oct-10 18:33N 57°35' E 011°14'1110.9
2014-Oct-10 17:33N 57°26' E 011°27'  
Track history (hours):
 
Tides and Currents Weather Stations Pressure Air Temp Water Temp Dewpoint Dewpoint Depression Visibility Wind Speed Wind Dir Waves Ship Positions

Wilson Clyde

Last reported at 2014-Oct-20 17:16 UTC. Time now 2014-Oct-23 06:07 UTC.
Position N 57°33' E 010°44'.

Length 100 m; draft 5.1 m.

Type: Ship. MMSI: 314187000.

Date/timePositionNaut miles runAvg speedWind from/ knotsBaromVisibWave heightAir tempDewpointWater temp
2014-Oct-20 17:16N 57°33' E 010°44'810.7
2014-Oct-20 16:33N 57°41' E 010°45'9 9.3
2014-Oct-20 15:33N 57°47' E 010°33'13611.3
2014-Oct-20 03:31N 58°06' E 006°19'8 8.7
2014-Oct-20 02:34N 58°12' E 006°08'9 8.7
2014-Oct-20 01:33N 58°18' E 005°57'10 9.7
2014-Oct-20 00:33N 58°25' E 005°43'9 8.7
2014-Oct-19 23:33N 58°31' E 005°32'13 8.9
2014-Oct-19 22:06N 58°42' E 005°19'5 8.4
2014-Oct-19 21:34N 58°46' E 005°14'8 8.1
2014-Oct-19 20:33N 58°53' E 005°06'8 7.6
2014-Oct-19 19:29N 58°60' E 004°58'7 7.3
2014-Oct-19 18:33N 59°06' E 004°51'  
2014-Oct-17 12:17N 66°17' E 012°13'911.9
2014-Oct-17 11:33N 66°15' E 012°35'1111.0
2014-Oct-17 10:32N 66°22' E 012°57'  
2014-Oct-14 22:33N 67°12' E 014°05'1312.9
2014-Oct-14 21:33N 67°22' E 014°25'2410.4
2014-Oct-14 19:12N 67°31' E 015°24'812.3
2014-Oct-14 18:33N 67°24' E 015°34'2 1.4
2014-Oct-14 17:25N 67°22' E 015°35'0 0.0
2014-Oct-14 16:25N 67°22' E 015°35'0 0.0
2014-Oct-14 15:28N 67°22' E 015°35'0 0.0
2014-Oct-14 14:28N 67°22' E 015°35'0 0.0
2014-Oct-14 13:28N 67°22' E 015°35'0 0.0
2014-Oct-14 12:31N 67°22' E 015°35'0 0.0
2014-Oct-14 11:31N 67°22' E 015°35'0 0.0
2014-Oct-14 10:31N 67°22' E 015°35'0 0.0
2014-Oct-14 09:31N 67°22' E 015°35'0 0.0
2014-Oct-14 08:31N 67°22' E 015°35'0 0.0
2014-Oct-14 07:31N 67°22' E 015°35'0 0.0
2014-Oct-14 06:31N 67°22' E 015°35'0 0.0
2014-Oct-14 05:22N 67°22' E 015°35'0 0.0
2014-Oct-14 04:25N 67°22' E 015°35'0 0.0
2014-Oct-14 03:25N 67°22' E 015°35'0 0.0
2014-Oct-14 02:22N 67°22' E 015°35'0 0.0
2014-Oct-14 01:33N 67°22' E 015°35'7 6.9
2014-Oct-14 00:33N 67°28' E 015°30'20 9.8
2014-Oct-13 22:33N 67°31' E 014°39'1110.7
2014-Oct-13 21:31N 67°30' E 014°10'7710.4
2014-Oct-13 14:08N 66°42' E 011°36'49410.8
2014-Oct-11 16:18N 59°04' E 004°51'912.3
2014-Oct-11 15:33N 58°56' E 004°59'1211.7
2014-Oct-11 14:33N 58°46' E 005°11'2511.8
2014-Oct-11 12:27N 58°25' E 005°36'1111.8
2014-Oct-11 11:33N 58°18' E 005°51'1212.0
2014-Oct-11 10:34N 58°09' E 006°07'1211.9
2014-Oct-11 09:31N 58°01' E 006°24'10111.0
2014-Oct-11 00:24N 57°51' E 009°33'8 9.6
2014-Oct-10 23:33N 57°50' E 009°48'20 9.9
2014-Oct-10 21:33N 57°49' E 010°25'9 9.4
2014-Oct-10 20:33N 57°48' E 010°42'1010.2
2014-Oct-10 19:33N 57°43' E 010°58'1211.8
2014-Oct-10 18:33N 57°35' E 011°14'1110.9
2014-Oct-10 17:33N 57°26' E 011°27'  

Dump ship's entire track history